N635RJ TNCM-KBTR
Flight info
| Callsign | N635RJ |
|---|---|
| Flight time | N/A |
| Altitude | 40000 |
| Route | PJM B520 STT RTE6 SJU DCT ACONY Y308 HAGIT Y290 UCRAZ DCT GAWKS DCT ZEMAN DCT RAYOP |
| Aircraft | CRJX/M-SDFGIRWY/S |
Departure
| Time | 2026-05-07 16:42 |
|---|---|
| Airport | Princess Juliana International Airport (TNCM) |
Arrival
| Time | N/A |
|---|---|
| Airport | Baton Rouge Metropolitan Airport (KBTR) |
| Time | Latitude | Longitude | Altitude | Speed | Heading |
|---|---|---|---|---|---|
| 2026-05-07 16:18 | 18.04200 | -63.11148 | 27 ft | 0 kts | 177° |
| 2026-05-07 16:33 | 18.04194 | -63.11148 | 27 ft | 2 kts | 177° |
| 2026-05-07 16:33 | 18.04169 | -63.11147 | 27 ft | 6 kts | 187° |
| 2026-05-07 16:33 | 18.04147 | -63.11187 | 26 ft | 9 kts | 262° |
| 2026-05-07 16:34 | 18.04137 | -63.11274 | 27 ft | 14 kts | 275° |
| 2026-05-07 16:34 | 18.04208 | -63.11319 | 27 ft | 15 kts | 335° |
| 2026-05-07 16:34 | 18.04229 | -63.11425 | 27 ft | 19 kts | 261° |
| 2026-05-07 16:34 | 18.04165 | -63.11549 | 27 ft | 20 kts | 231° |
| 2026-05-07 16:35 | 18.04076 | -63.11666 | 28 ft | 21 kts | 235° |
| 2026-05-07 16:35 | 18.04046 | -63.11817 | 26 ft | 22 kts | 261° |
| 2026-05-07 16:35 | 18.04032 | -63.11897 | 26 ft | 0 kts | 248° |
| 2026-05-07 16:40 | 18.04028 | -63.11907 | 29 ft | 3 kts | 241° |
| 2026-05-07 16:41 | 18.04008 | -63.11936 | 28 ft | 6 kts | 234° |
| 2026-05-07 16:41 | 18.03966 | -63.11967 | 26 ft | 9 kts | 180° |
| 2026-05-07 16:41 | 18.03943 | -63.11933 | 28 ft | 6 kts | 82° |
| 2026-05-07 16:41 | 18.03955 | -63.11843 | 28 ft | 31 kts | 81° |
| 2026-05-07 16:42 | 18.04022 | -63.11372 | 26 ft | 98 kts | 81° |
| 2026-05-07 16:42 | 18.04153 | -63.10470 | 28 ft | 149 kts | 82° |
| 2026-05-07 16:42 | 18.04304 | -63.09349 | 515 ft | 156 kts | 83° |
| 2026-05-07 16:42 | 18.04426 | -63.08223 | 1176 ft | 156 kts | 84° |
| 2026-05-07 16:43 | 18.04475 | -63.07090 | 1825 ft | 158 kts | 100° |
| 2026-05-07 16:43 | 18.03991 | -63.06009 | 2275 ft | 173 kts | 117° |
| 2026-05-07 16:43 | 18.03400 | -63.04833 | 2610 ft | 192 kts | 117° |
| 2026-05-07 16:43 | 18.02602 | -63.03640 | 3066 ft | 214 kts | 141° |
| 2026-05-07 16:44 | 18.01138 | -63.03146 | 3656 ft | 233 kts | 179° |
| 2026-05-07 16:44 | 17.99566 | -63.03597 | 4397 ft | 243 kts | 214° |
| 2026-05-07 16:44 | 17.98550 | -63.04992 | 5280 ft | 243 kts | 254° |
| 2026-05-07 16:44 | 17.98497 | -63.06756 | 6282 ft | 245 kts | 283° |
| 2026-05-07 16:45 | 17.98821 | -63.08535 | 7227 ft | 249 kts | 283° |
| 2026-05-07 16:45 | 17.99192 | -63.10347 | 7999 ft | 262 kts | 284° |
| 2026-05-07 16:45 | 17.99635 | -63.12264 | 8642 ft | 278 kts | 285° |
| 2026-05-07 16:45 | 18.00121 | -63.14272 | 9431 ft | 286 kts | 286° |
| 2026-05-07 16:46 | 18.00634 | -63.16302 | 10344 ft | 290 kts | 286° |
| 2026-05-07 16:46 | 18.01174 | -63.18361 | 11208 ft | 293 kts | 287° |
| 2026-05-07 16:46 | 18.01734 | -63.20435 | 12028 ft | 298 kts | 287° |
| 2026-05-07 16:46 | 18.02300 | -63.22540 | 12905 ft | 300 kts | 287° |
| 2026-05-07 16:47 | 18.02843 | -63.24674 | 13738 ft | 305 kts | 287° |
| 2026-05-07 16:47 | 18.03381 | -63.26837 | 14495 ft | 309 kts | 286° |
| 2026-05-07 16:47 | 18.03931 | -63.29055 | 14971 ft | 324 kts | 286° |
| 2026-05-07 16:47 | 18.04513 | -63.31415 | 15251 ft | 343 kts | 286° |
| 2026-05-07 16:48 | 18.05126 | -63.33899 | 15600 ft | 359 kts | 286° |
| 2026-05-07 16:48 | 18.05751 | -63.36469 | 16201 ft | 364 kts | 286° |
| 2026-05-07 16:48 | 18.06383 | -63.39054 | 16901 ft | 367 kts | 286° |
| 2026-05-07 16:48 | 18.07023 | -63.41664 | 17588 ft | 370 kts | 286° |
| 2026-05-07 16:49 | 18.07671 | -63.44296 | 18230 ft | 374 kts | 286° |
| 2026-05-07 16:49 | 18.08325 | -63.46961 | 18796 ft | 377 kts | 286° |
| 2026-05-07 16:49 | 18.08982 | -63.49639 | 19347 ft | 380 kts | 286° |
| 2026-05-07 16:49 | 18.09642 | -63.52342 | 19894 ft | 383 kts | 286° |
| 2026-05-07 16:50 | 18.10306 | -63.55065 | 20430 ft | 386 kts | 286° |
| 2026-05-07 16:50 | 18.10976 | -63.57810 | 20954 ft | 389 kts | 286° |
| 2026-05-07 16:50 | 18.11650 | -63.60574 | 21461 ft | 392 kts | 286° |
| 2026-05-07 16:50 | 18.12331 | -63.63358 | 21951 ft | 395 kts | 286° |
| 2026-05-07 16:51 | 18.13015 | -63.66166 | 22438 ft | 398 kts | 285° |
| 2026-05-07 16:51 | 18.13593 | -63.69019 | 22907 ft | 401 kts | 282° |
| 2026-05-07 16:51 | 18.14052 | -63.71918 | 23363 ft | 404 kts | 281° |
| 2026-05-07 16:51 | 18.14488 | -63.74854 | 23767 ft | 408 kts | 281° |
| 2026-05-07 16:52 | 18.14942 | -63.77810 | 24100 ft | 411 kts | 282° |
| 2026-05-07 16:52 | 18.15440 | -63.80777 | 24468 ft | 413 kts | 282° |
| 2026-05-07 16:52 | 18.15943 | -63.83760 | 24832 ft | 416 kts | 282° |
| 2026-05-07 16:52 | 18.16446 | -63.86756 | 25187 ft | 418 kts | 282° |
| 2026-05-07 16:53 | 18.16954 | -63.89772 | 25536 ft | 420 kts | 282° |
| 2026-05-07 16:53 | 18.17465 | -63.92808 | 25865 ft | 423 kts | 282° |
| 2026-05-07 16:53 | 18.17975 | -63.95854 | 26194 ft | 425 kts | 282° |
| 2026-05-07 16:53 | 18.18484 | -63.98888 | 26503 ft | 427 kts | 282° |
| 2026-05-07 16:54 | 18.18919 | -64.01485 | 26762 ft | 429 kts | 282° |
| 2026-05-07 16:54 | 18.19196 | -64.03134 | 26926 ft | 430 kts | 282° |
| 2026-05-07 16:54 | 18.19387 | -64.04280 | 27036 ft | 431 kts | 282° |
| 2026-05-07 16:54 | 18.19570 | -64.05382 | 27128 ft | 432 kts | 283° |
| 2026-05-07 16:55 | 18.19754 | -64.06478 | 27185 ft | 434 kts | 282° |
| 2026-05-07 16:55 | 18.19937 | -64.07570 | 27281 ft | 434 kts | 282° |
| 2026-05-07 16:55 | 18.20113 | -64.08630 | 27376 ft | 435 kts | 282° |
| 2026-05-07 16:55 | 18.20281 | -64.09652 | 27457 ft | 436 kts | 282° |
| 2026-05-07 16:56 | 18.20442 | -64.10629 | 27556 ft | 436 kts | 282° |
| 2026-05-07 16:56 | 18.20676 | -64.12045 | 27683 ft | 437 kts | 283° |
| 2026-05-07 16:56 | 18.21668 | -64.17928 | 28206 ft | 441 kts | 282° |
| 2026-05-07 16:57 | 18.22195 | -64.21111 | 28478 ft | 443 kts | 283° |
| 2026-05-07 16:57 | 18.22727 | -64.24322 | 28749 ft | 445 kts | 283° |
| 2026-05-07 16:57 | 18.23260 | -64.27511 | 29004 ft | 447 kts | 282° |
| 2026-05-07 16:57 | 18.23466 | -64.28761 | 29100 ft | 448 kts | 282° |
| 2026-05-07 16:58 | 18.23801 | -64.30787 | 29258 ft | 449 kts | 283° |
| 2026-05-07 16:58 | 18.24330 | -64.33980 | 29501 ft | 451 kts | 283° |
| 2026-05-07 16:58 | 18.24872 | -64.37234 | 29701 ft | 453 kts | 283° |
| 2026-05-07 16:59 | 18.25415 | -64.40513 | 29910 ft | 455 kts | 283° |
| 2026-05-07 16:59 | 18.25955 | -64.43795 | 30134 ft | 457 kts | 283° |
| 2026-05-07 16:59 | 18.26501 | -64.47093 | 30330 ft | 458 kts | 283° |
| 2026-05-07 16:59 | 18.27045 | -64.50399 | 30559 ft | 459 kts | 283° |
| 2026-05-07 17:00 | 18.27589 | -64.53707 | 30790 ft | 459 kts | 283° |
| 2026-05-07 17:00 | 18.28143 | -64.57012 | 31045 ft | 459 kts | 283° |
| 2026-05-07 17:00 | 18.28681 | -64.60322 | 31251 ft | 459 kts | 283° |
| 2026-05-07 17:00 | 18.29217 | -64.63633 | 31505 ft | 458 kts | 283° |
| 2026-05-07 17:01 | 18.29754 | -64.66934 | 31750 ft | 458 kts | 283° |
| 2026-05-07 17:01 | 18.30304 | -64.70237 | 31973 ft | 457 kts | 283° |
| 2026-05-07 17:01 | 18.30841 | -64.73524 | 32238 ft | 456 kts | 283° |
| 2026-05-07 17:01 | 18.31377 | -64.76815 | 32505 ft | 455 kts | 283° |
| 2026-05-07 17:02 | 18.31911 | -64.80087 | 32761 ft | 454 kts | 283° |
| 2026-05-07 17:02 | 18.32444 | -64.83363 | 33033 ft | 453 kts | 283° |
| 2026-05-07 17:02 | 18.32976 | -64.86626 | 33279 ft | 452 kts | 283° |
| 2026-05-07 17:02 | 18.33497 | -64.89832 | 33543 ft | 451 kts | 283° |
| 2026-05-07 17:03 | 18.34025 | -64.93081 | 33791 ft | 450 kts | 283° |
| 2026-05-07 17:03 | 18.34545 | -64.96318 | 34045 ft | 449 kts | 282° |
| 2026-05-07 17:03 | 18.34693 | -64.99620 | 34185 ft | 457 kts | 269° |
| 2026-05-07 17:03 | 18.34331 | -65.02952 | 34338 ft | 459 kts | 266° |
| 2026-05-07 17:04 | 18.33909 | -65.06279 | 34523 ft | 459 kts | 265° |
| 2026-05-07 17:04 | 18.33421 | -65.09600 | 34672 ft | 461 kts | 263° |
| 2026-05-07 17:04 | 18.32629 | -65.12879 | 34838 ft | 464 kts | 256° |
| 2026-05-07 17:04 | 18.31581 | -65.16098 | 34993 ft | 466 kts | 254° |
| 2026-05-07 17:05 | 18.30659 | -65.19348 | 35123 ft | 461 kts | 263° |
| 2026-05-07 17:05 | 18.30400 | -65.22682 | 35271 ft | 455 kts | 274° |
| 2026-05-07 17:05 | 18.30456 | -65.26008 | 35421 ft | 454 kts | 276° |
| 2026-05-07 17:05 | 18.30605 | -65.29327 | 35570 ft | 453 kts | 277° |
| 2026-05-07 17:06 | 18.31546 | -65.35856 | 35772 ft | 450 kts | 288° |
| 2026-05-07 17:06 | 18.32306 | -65.39050 | 35920 ft | 450 kts | 288° |
| 2026-05-07 17:06 | 18.33062 | -65.42251 | 36056 ft | 450 kts | 288° |
| 2026-05-07 17:07 | 18.33752 | -65.45470 | 36194 ft | 452 kts | 286° |
| 2026-05-07 17:07 | 18.34405 | -65.48695 | 36332 ft | 452 kts | 287° |
| 2026-05-07 17:07 | 18.35068 | -65.51925 | 36481 ft | 451 kts | 287° |
| 2026-05-07 17:07 | 18.35735 | -65.55154 | 36625 ft | 451 kts | 287° |
| 2026-05-07 17:08 | 18.36404 | -65.58383 | 36765 ft | 451 kts | 287° |
| 2026-05-07 17:08 | 18.37067 | -65.61615 | 36863 ft | 452 kts | 287° |
| 2026-05-07 17:08 | 18.37714 | -65.64854 | 36989 ft | 453 kts | 287° |
| 2026-05-07 17:08 | 18.38356 | -65.68140 | 37134 ft | 452 kts | 287° |
| 2026-05-07 17:09 | 18.38992 | -65.71392 | 37263 ft | 452 kts | 287° |
| 2026-05-07 17:09 | 18.39638 | -65.74583 | 37363 ft | 453 kts | 287° |
| 2026-05-07 17:09 | 18.40297 | -65.77820 | 37507 ft | 452 kts | 287° |
| 2026-05-07 17:09 | 18.40957 | -65.81056 | 37645 ft | 452 kts | 287° |
| 2026-05-07 17:10 | 18.41618 | -65.84294 | 37778 ft | 452 kts | 287° |
| 2026-05-07 17:10 | 18.42272 | -65.87515 | 37877 ft | 453 kts | 287° |
| 2026-05-07 17:10 | 18.42931 | -65.90753 | 38018 ft | 452 kts | 287° |
| 2026-05-07 17:10 | 18.43790 | -65.93909 | 38155 ft | 444 kts | 299° |
| 2026-05-07 17:11 | 18.45236 | -65.96727 | 38366 ft | 434 kts | 308° |
| 2026-05-07 17:11 | 18.46879 | -65.99388 | 38514 ft | 432 kts | 309° |
| 2026-05-07 17:11 | 18.48575 | -66.02002 | 38648 ft | 431 kts | 310° |
| 2026-05-07 17:11 | 18.50314 | -66.04573 | 38781 ft | 430 kts | 312° |
| 2026-05-07 17:12 | 18.54393 | -66.09061 | 39065 ft | 420 kts | 323° |
| 2026-05-07 17:12 | 18.56576 | -66.11108 | 39205 ft | 419 kts | 323° |
| 2026-05-07 17:12 | 18.58058 | -66.12510 | 39252 ft | 420 kts | 322° |
| 2026-05-07 17:13 | 18.59846 | -66.14269 | 39329 ft | 421 kts | 321° |
| 2026-05-07 17:13 | 18.61532 | -66.15988 | 39402 ft | 421 kts | 321° |
| 2026-05-07 17:14 | 18.65067 | -66.19593 | 39554 ft | 421 kts | 321° |
| 2026-05-07 17:14 | 18.69289 | -66.23878 | 39725 ft | 421 kts | 321° |
| 2026-05-07 17:15 | 18.71398 | -66.26021 | 39837 ft | 420 kts | 321° |
| 2026-05-07 17:15 | 18.73498 | -66.28154 | 39962 ft | 419 kts | 321° |
| 2026-05-07 17:15 | 18.77705 | -66.32422 | 40049 ft | 421 kts | 321° |
| 2026-05-07 17:16 | 18.81939 | -66.36724 | 40078 ft | 424 kts | 321° |
| 2026-05-07 17:16 | 18.86217 | -66.41056 | 40076 ft | 428 kts | 321° |
| 2026-05-07 17:17 | 18.90521 | -66.45436 | 40079 ft | 431 kts | 321° |
| 2026-05-07 17:17 | 18.94443 | -66.50321 | 40080 ft | 440 kts | 313° |
| 2026-05-07 17:18 | 18.97928 | -66.55643 | 40077 ft | 438 kts | 309° |
| 2026-05-07 17:18 | 19.01255 | -66.60954 | 40073 ft | 429 kts | 310° |
| 2026-05-07 17:19 | 19.04611 | -66.66106 | 40071 ft | 422 kts | 311° |
| 2026-05-07 17:19 | 19.07877 | -66.71081 | 40077 ft | 416 kts | 311° |
| 2026-05-07 17:20 | 19.10129 | -66.74579 | 40074 ft | 413 kts | 310° |
| 2026-05-07 17:20 | 19.11308 | -66.76413 | 40073 ft | 411 kts | 311° |
| 2026-05-07 17:21 | 19.12614 | -66.78436 | 40071 ft | 409 kts | 311° |
| 2026-05-07 17:21 | 19.14423 | -66.81229 | 40072 ft | 407 kts | 311° |
| 2026-05-07 17:22 | 19.17372 | -66.85786 | 40076 ft | 407 kts | 311° |
| 2026-05-07 17:22 | 19.20555 | -66.90722 | 40075 ft | 405 kts | 311° |
| 2026-05-07 17:23 | 19.23728 | -66.95645 | 40084 ft | 404 kts | 311° |
| 2026-05-07 17:23 | 19.26896 | -67.00556 | 40081 ft | 404 kts | 311° |
| 2026-05-07 17:24 | 19.30050 | -67.05462 | 40078 ft | 403 kts | 311° |
| 2026-05-07 17:24 | 19.33201 | -67.10356 | 40078 ft | 402 kts | 311° |
| 2026-05-07 17:25 | 19.36356 | -67.15263 | 40083 ft | 403 kts | 311° |
| 2026-05-07 17:25 | 19.39512 | -67.20176 | 40084 ft | 404 kts | 311° |
| 2026-05-07 17:26 | 19.42675 | -67.25105 | 40080 ft | 405 kts | 311° |
| 2026-05-07 17:26 | 19.45863 | -67.30076 | 40087 ft | 405 kts | 311° |
| 2026-05-07 17:27 | 19.49031 | -67.35020 | 40089 ft | 406 kts | 311° |
| 2026-05-07 17:27 | 19.52203 | -67.39973 | 40091 ft | 407 kts | 311° |
| 2026-05-07 17:28 | 19.55385 | -67.44946 | 40088 ft | 407 kts | 311° |
| 2026-05-07 17:28 | 19.58567 | -67.49923 | 40078 ft | 408 kts | 311° |
| 2026-05-07 17:29 | 19.61731 | -67.54878 | 40069 ft | 409 kts | 311° |
| 2026-05-07 17:29 | 19.64914 | -67.59866 | 40079 ft | 409 kts | 311° |
| 2026-05-07 17:30 | 19.68101 | -67.64866 | 40086 ft | 409 kts | 311° |
| 2026-05-07 17:30 | 19.71314 | -67.69908 | 40089 ft | 410 kts | 311° |
| 2026-05-07 17:31 | 19.74505 | -67.74920 | 40080 ft | 410 kts | 311° |
| 2026-05-07 17:31 | 19.77697 | -67.79939 | 40079 ft | 410 kts | 311° |
| 2026-05-07 17:32 | 19.80890 | -67.84964 | 40080 ft | 411 kts | 311° |
| 2026-05-07 17:32 | 19.84086 | -67.89996 | 40080 ft | 411 kts | 311° |
| 2026-05-07 17:33 | 19.87288 | -67.95043 | 40078 ft | 413 kts | 311° |
| 2026-05-07 17:33 | 19.90499 | -68.00108 | 40078 ft | 414 kts | 311° |
| 2026-05-07 17:34 | 19.93717 | -68.05190 | 40084 ft | 415 kts | 311° |
| 2026-05-07 17:34 | 19.96942 | -68.10285 | 40085 ft | 416 kts | 311° |
| 2026-05-07 17:35 | 20.00176 | -68.15401 | 40082 ft | 417 kts | 311° |
| 2026-05-07 17:35 | 20.03416 | -68.20528 | 40072 ft | 418 kts | 311° |
| 2026-05-07 17:36 | 20.06660 | -68.25669 | 40072 ft | 419 kts | 311° |
| 2026-05-07 17:36 | 20.09909 | -68.30820 | 40076 ft | 420 kts | 311° |
| 2026-05-07 17:37 | 20.13165 | -68.35989 | 40077 ft | 421 kts | 311° |
| 2026-05-07 17:37 | 20.16423 | -68.41168 | 40077 ft | 422 kts | 311° |
| 2026-05-07 17:38 | 20.19689 | -68.46361 | 40080 ft | 422 kts | 311° |
| 2026-05-07 17:38 | 20.22959 | -68.51563 | 40081 ft | 423 kts | 310° |
| 2026-05-07 17:39 | 20.26193 | -68.56814 | 40077 ft | 426 kts | 308° |
| 2026-05-07 17:39 | 20.29157 | -68.62251 | 40077 ft | 428 kts | 307° |
| 2026-05-07 17:40 | 20.32110 | -68.67760 | 40080 ft | 428 kts | 307° |
| 2026-05-07 17:40 | 20.35096 | -68.73249 | 40080 ft | 428 kts | 307° |
| 2026-05-07 17:41 | 20.38098 | -68.78738 | 40079 ft | 429 kts | 307° |
| 2026-05-07 17:41 | 20.41089 | -68.84242 | 40080 ft | 429 kts | 307° |
| 2026-05-07 17:42 | 20.44080 | -68.89750 | 40071 ft | 429 kts | 307° |
| 2026-05-07 17:42 | 20.47074 | -68.95262 | 40079 ft | 430 kts | 307° |
| 2026-05-07 17:43 | 20.50067 | -69.00782 | 40079 ft | 430 kts | 307° |
| 2026-05-07 17:43 | 20.53057 | -69.06302 | 40080 ft | 430 kts | 307° |
| 2026-05-07 17:44 | 20.56049 | -69.11828 | 40078 ft | 430 kts | 307° |
| 2026-05-07 17:44 | 20.59038 | -69.17355 | 40078 ft | 430 kts | 307° |
| 2026-05-07 17:45 | 20.62030 | -69.22889 | 40071 ft | 430 kts | 307° |
| 2026-05-07 17:45 | 20.65012 | -69.28416 | 40075 ft | 430 kts | 307° |
| 2026-05-07 17:46 | 20.67998 | -69.33958 | 40075 ft | 430 kts | 306° |
| 2026-05-07 17:46 | 20.70982 | -69.39497 | 40080 ft | 430 kts | 306° |
| 2026-05-07 17:47 | 20.73964 | -69.45038 | 40073 ft | 430 kts | 306° |
| 2026-05-07 17:47 | 20.76945 | -69.50582 | 40082 ft | 430 kts | 306° |
| 2026-05-07 17:48 | 20.79928 | -69.56119 | 40070 ft | 430 kts | 306° |
| 2026-05-07 17:48 | 20.82906 | -69.61677 | 40075 ft | 431 kts | 306° |
| 2026-05-07 17:49 | 20.85880 | -69.67237 | 40072 ft | 431 kts | 306° |
| 2026-05-07 17:49 | 20.88863 | -69.72795 | 40071 ft | 431 kts | 305° |
| 2026-05-07 17:50 | 20.91843 | -69.78360 | 40081 ft | 431 kts | 305° |
| 2026-05-07 17:50 | 20.94793 | -69.83897 | 40086 ft | 431 kts | 305° |
| 2026-05-07 17:51 | 20.97798 | -69.89508 | 40074 ft | 432 kts | 304° |
| 2026-05-07 17:51 | 21.00774 | -69.95091 | 40075 ft | 432 kts | 304° |
| 2026-05-07 17:52 | 21.03744 | -70.00681 | 40077 ft | 432 kts | 304° |
| 2026-05-07 17:52 | 21.06721 | -70.06272 | 40076 ft | 432 kts | 304° |
| 2026-05-07 17:53 | 21.09697 | -70.11867 | 40075 ft | 432 kts | 304° |
| 2026-05-07 17:53 | 21.12670 | -70.17467 | 40074 ft | 433 kts | 304° |
| 2026-05-07 17:54 | 21.15641 | -70.23071 | 40068 ft | 432 kts | 304° |
| 2026-05-07 17:54 | 21.18609 | -70.28674 | 40073 ft | 432 kts | 304° |
| 2026-05-07 17:55 | 21.21578 | -70.34276 | 40074 ft | 432 kts | 304° |
| 2026-05-07 17:55 | 21.24543 | -70.39883 | 40075 ft | 432 kts | 304° |
| 2026-05-07 17:56 | 21.27506 | -70.45493 | 40075 ft | 432 kts | 304° |
| 2026-05-07 17:56 | 21.30468 | -70.51105 | 40077 ft | 432 kts | 304° |
| 2026-05-07 17:57 | 21.32931 | -70.55772 | 40066 ft | 432 kts | 304° |
| 2026-05-07 17:57 | 21.36387 | -70.62331 | 40073 ft | 432 kts | 304° |
| 2026-05-07 17:58 | 21.39339 | -70.67949 | 40074 ft | 432 kts | 304° |
| 2026-05-07 17:58 | 21.42294 | -70.73567 | 40074 ft | 432 kts | 304° |
| 2026-05-07 17:59 | 21.45246 | -70.79189 | 40074 ft | 432 kts | 303° |
| 2026-05-07 17:59 | 21.48197 | -70.84815 | 40075 ft | 432 kts | 303° |
| 2026-05-07 18:00 | 21.51147 | -70.90442 | 40068 ft | 432 kts | 303° |
| 2026-05-07 18:00 | 21.54094 | -70.96071 | 40075 ft | 432 kts | 303° |
| 2026-05-07 18:01 | 21.56543 | -71.00757 | 40073 ft | 433 kts | 303° |
| 2026-05-07 18:01 | 21.59485 | -71.06398 | 40077 ft | 433 kts | 303° |
| 2026-05-07 18:02 | 21.63897 | -71.14907 | 40076 ft | 433 kts | 303° |
| 2026-05-07 18:03 | 21.66830 | -71.20561 | 40072 ft | 433 kts | 303° |
| 2026-05-07 18:03 | 21.69765 | -71.26229 | 40073 ft | 434 kts | 303° |
| 2026-05-07 18:04 | 21.72694 | -71.31892 | 40071 ft | 434 kts | 303° |
| 2026-05-07 18:04 | 21.75624 | -71.37561 | 40067 ft | 434 kts | 303° |
| 2026-05-07 18:05 | 21.78552 | -71.43231 | 40072 ft | 433 kts | 303° |
| 2026-05-07 18:05 | 21.81477 | -71.48904 | 40072 ft | 433 kts | 303° |
| 2026-05-07 18:06 | 21.84401 | -71.54581 | 40076 ft | 433 kts | 303° |
| 2026-05-07 18:06 | 21.87302 | -71.60214 | 40067 ft | 433 kts | 303° |
| 2026-05-07 18:07 | 21.90220 | -71.65894 | 40074 ft | 433 kts | 303° |
| 2026-05-07 18:07 | 21.93137 | -71.71575 | 40072 ft | 433 kts | 303° |
| 2026-05-07 18:08 | 21.96052 | -71.77258 | 40069 ft | 433 kts | 303° |
| 2026-05-07 18:08 | 21.98963 | -71.82940 | 40074 ft | 434 kts | 303° |
| 2026-05-07 18:09 | 22.01878 | -71.88634 | 40071 ft | 434 kts | 303° |
| 2026-05-07 18:09 | 22.04791 | -71.94325 | 40064 ft | 434 kts | 302° |
| 2026-05-07 18:10 | 22.07718 | -72.00061 | 40071 ft | 434 kts | 302° |
| 2026-05-07 18:10 | 22.10629 | -72.05766 | 40072 ft | 434 kts | 302° |
| 2026-05-07 18:11 | 22.13516 | -72.11433 | 40076 ft | 434 kts | 302° |
| 2026-05-07 18:11 | 22.16423 | -72.17145 | 40071 ft | 434 kts | 302° |
| 2026-05-07 18:12 | 22.19330 | -72.22860 | 40070 ft | 434 kts | 302° |
| 2026-05-07 18:12 | 22.22235 | -72.28576 | 40065 ft | 434 kts | 302° |
| 2026-05-07 18:13 | 22.25134 | -72.34293 | 40069 ft | 435 kts | 302° |
| 2026-05-07 18:13 | 22.28035 | -72.40020 | 40067 ft | 435 kts | 302° |
| 2026-05-07 18:14 | 22.30936 | -72.45748 | 40067 ft | 435 kts | 302° |
| 2026-05-07 18:14 | 22.33836 | -72.51483 | 40067 ft | 435 kts | 302° |
| 2026-05-07 18:15 | 22.36732 | -72.57216 | 40067 ft | 435 kts | 302° |
| 2026-05-07 18:15 | 22.39630 | -72.62955 | 40062 ft | 435 kts | 302° |
| 2026-05-07 18:16 | 22.42524 | -72.68700 | 40067 ft | 435 kts | 302° |
| 2026-05-07 18:16 | 22.45418 | -72.74450 | 40067 ft | 435 kts | 302° |
| 2026-05-07 18:17 | 22.48311 | -72.80202 | 40068 ft | 436 kts | 302° |
| 2026-05-07 18:17 | 22.51203 | -72.85959 | 40072 ft | 435 kts | 302° |
| 2026-05-07 18:18 | 22.54088 | -72.91713 | 40070 ft | 435 kts | 302° |
| 2026-05-07 18:18 | 22.56975 | -72.97469 | 40064 ft | 435 kts | 301° |
| 2026-05-07 18:19 | 22.59859 | -73.03228 | 40069 ft | 435 kts | 301° |
| 2026-05-07 18:19 | 22.62739 | -73.08992 | 40067 ft | 435 kts | 301° |
| 2026-05-07 18:20 | 22.65617 | -73.14755 | 40063 ft | 435 kts | 301° |
| 2026-05-07 18:20 | 22.68492 | -73.20517 | 40064 ft | 435 kts | 301° |
| 2026-05-07 18:21 | 22.71368 | -73.26287 | 40065 ft | 435 kts | 301° |
| 2026-05-07 18:21 | 22.74243 | -73.32056 | 40062 ft | 435 kts | 301° |
| 2026-05-07 18:22 | 22.77114 | -73.37832 | 40066 ft | 435 kts | 301° |
| 2026-05-07 18:22 | 22.79982 | -73.43613 | 40067 ft | 435 kts | 301° |
| 2026-05-07 18:23 | 22.82848 | -73.49388 | 40065 ft | 435 kts | 301° |
| 2026-05-07 18:23 | 22.85735 | -73.55216 | 40067 ft | 436 kts | 301° |
| 2026-05-07 18:24 | 22.88598 | -73.61000 | 40074 ft | 436 kts | 301° |
| 2026-05-07 18:24 | 22.91462 | -73.66790 | 40066 ft | 435 kts | 300° |
| 2026-05-07 18:25 | 22.94323 | -73.72582 | 40069 ft | 435 kts | 300° |
| 2026-05-07 18:25 | 22.97178 | -73.78378 | 40069 ft | 435 kts | 300° |
| 2026-05-07 18:26 | 23.00031 | -73.84166 | 40067 ft | 435 kts | 300° |
| 2026-05-07 18:26 | 23.02886 | -73.89968 | 40067 ft | 435 kts | 300° |
| 2026-05-07 18:27 | 23.05734 | -73.95763 | 40069 ft | 435 kts | 300° |
| 2026-05-07 18:27 | 23.08582 | -74.01564 | 40062 ft | 435 kts | 300° |
| 2026-05-07 18:28 | 23.11431 | -74.07368 | 40069 ft | 435 kts | 300° |
| 2026-05-07 18:28 | 23.14252 | -74.13137 | 40069 ft | 435 kts | 300° |
| 2026-05-07 18:29 | 23.17096 | -74.18948 | 40067 ft | 435 kts | 300° |
| 2026-05-07 18:29 | 23.19938 | -74.24763 | 40067 ft | 436 kts | 300° |
| 2026-05-07 18:30 | 23.22769 | -74.30566 | 40072 ft | 436 kts | 300° |
| 2026-05-07 18:30 | 23.25610 | -74.36392 | 40062 ft | 436 kts | 300° |
| 2026-05-07 18:31 | 23.28445 | -74.42211 | 40071 ft | 436 kts | 300° |
| 2026-05-07 18:31 | 23.31276 | -74.48039 | 40068 ft | 435 kts | 300° |
| 2026-05-07 18:32 | 23.34106 | -74.53864 | 40065 ft | 435 kts | 300° |
| 2026-05-07 18:32 | 23.36931 | -74.59686 | 40070 ft | 435 kts | 300° |
| 2026-05-07 18:33 | 23.39756 | -74.65516 | 40067 ft | 435 kts | 299° |
| 2026-05-07 18:33 | 23.42577 | -74.71344 | 40067 ft | 435 kts | 299° |
| 2026-05-07 18:34 | 23.45393 | -74.77170 | 40063 ft | 435 kts | 299° |
| 2026-05-07 18:34 | 23.48211 | -74.83004 | 40064 ft | 435 kts | 299° |
| 2026-05-07 18:35 | 23.51024 | -74.88838 | 40064 ft | 435 kts | 299° |
| 2026-05-07 18:35 | 23.53834 | -74.94672 | 40064 ft | 435 kts | 299° |
| 2026-05-07 18:36 | 23.56644 | -75.00513 | 40066 ft | 435 kts | 299° |
| 2026-05-07 18:36 | 23.59451 | -75.06354 | 40064 ft | 435 kts | 299° |
| 2026-05-07 18:37 | 23.62276 | -75.12236 | 40064 ft | 435 kts | 299° |
| 2026-05-07 18:37 | 23.65078 | -75.18086 | 40065 ft | 435 kts | 299° |
| 2026-05-07 18:38 | 23.67878 | -75.23933 | 40069 ft | 435 kts | 299° |
| 2026-05-07 18:38 | 23.70657 | -75.29742 | 40065 ft | 435 kts | 299° |
| 2026-05-07 18:39 | 23.73449 | -75.35588 | 40065 ft | 434 kts | 299° |
| 2026-05-07 18:39 | 23.76256 | -75.41473 | 40064 ft | 434 kts | 299° |
| 2026-05-07 18:40 | 23.79045 | -75.47322 | 40060 ft | 434 kts | 298° |
| 2026-05-07 18:40 | 23.81358 | -75.52184 | 40061 ft | 434 kts | 298° |
| 2026-05-07 18:41 | 23.84588 | -75.58982 | 40065 ft | 434 kts | 298° |
| 2026-05-07 18:41 | 23.86917 | -75.63885 | 40064 ft | 434 kts | 298° |
| 2026-05-07 18:42 | 23.89692 | -75.69737 | 40060 ft | 434 kts | 298° |
| 2026-05-07 18:42 | 23.92466 | -75.75593 | 40061 ft | 434 kts | 298° |
| 2026-05-07 18:43 | 23.95240 | -75.81451 | 40060 ft | 434 kts | 298° |
| 2026-05-07 18:43 | 23.98007 | -75.87310 | 40061 ft | 434 kts | 298° |
| 2026-05-07 18:44 | 24.00772 | -75.93172 | 40064 ft | 434 kts | 298° |
| 2026-05-07 18:44 | 24.03539 | -75.99040 | 40062 ft | 434 kts | 298° |
| 2026-05-07 18:45 | 24.06301 | -76.04908 | 40056 ft | 434 kts | 298° |
| 2026-05-07 18:45 | 24.09061 | -76.10779 | 40058 ft | 434 kts | 298° |
| 2026-05-07 18:46 | 24.11819 | -76.16649 | 40055 ft | 434 kts | 298° |
| 2026-05-07 18:46 | 24.14577 | -76.22530 | 40057 ft | 434 kts | 298° |
| 2026-05-07 18:47 | 24.17331 | -76.28411 | 40061 ft | 434 kts | 298° |
| 2026-05-07 18:47 | 24.20085 | -76.34297 | 40059 ft | 434 kts | 298° |
| 2026-05-07 18:48 | 24.22836 | -76.40185 | 40057 ft | 434 kts | 298° |